Time;durP1;ratioP1;P1;durP2;ratioP2;P2;SDS_P1;SDS_P2;PMS_P1;PMS_P2;Temp;Humidity;BMP_temperature;BMP_pressure;BME280_temperature;BME280_humidity;BME280_pressure;Samples;Min_cycle;Max_cycle;Signal;HPM_P1;HPM_P2
2022/08/14 00:02:24;;;;;;;16.70;12.48;;;;;;;23.45;49.45;99957.13;5074038;28;20024;-77
2022/08/14 00:04:49;;;;;;;15.52;12.60;;;;;;;23.43;49.49;99947.56;5074230;28;20084;-77
2022/08/14 00:07:15;;;;;;;19.45;14.25;;;;;;;23.43;49.31;99945.69;5073965;28;20230;-77
2022/08/14 00:09:44;;;;;;;20.30;13.98;;;;;;;23.42;49.24;99949.44;5070119;28;20029;-77
2022/08/14 00:12:10;;;;;;;20.60;15.90;;;;;;;23.42;49.26;99946.72;5070267;28;20045;-77
2022/08/14 00:14:39;;;;;;;19.75;15.27;;;;;;;23.41;49.23;99945.06;5074037;28;20115;-77
2022/08/14 00:17:05;;;;;;;18.33;14.68;;;;;;;23.41;49.45;99947.75;5070169;28;20062;-77
2022/08/14 00:19:30;;;;;;;21.52;16.00;;;;;;;23.44;49.25;99943.81;5073868;28;20059;-77
2022/08/14 00:21:56;;;;;;;20.25;15.27;;;;;;;23.43;49.19;99944.84;5074020;28;20021;-77
2022/08/14 00:24:22;;;;;;;18.90;15.18;;;;;;;23.44;49.13;99944.66;5073800;28;20025;-76
2022/08/14 00:26:48;;;;;;;19.92;16.75;;;;;;;23.40;49.40;99948.78;5052466;28;20013;-76
2022/08/14 00:29:14;;;;;;;17.67;14.80;;;;;;;23.37;49.13;99940.25;5078981;28;20008;-76
2022/08/14 00:31:39;;;;;;;21.95;16.50;;;;;;;23.33;49.57;99936.25;5072137;28;20241;-76
2022/08/14 00:34:05;;;;;;;19.95;16.33;;;;;;;23.33;49.25;99936.25;5072882;28;20020;-77
2022/08/14 00:36:31;;;;;;;21.20;15.82;;;;;;;23.33;49.36;99933.56;5087744;28;20028;-78
2022/08/14 00:38:56;;;;;;;26.52;18.20;;;;;;;23.28;49.34;99934.16;5076541;28;20043;-78
2022/08/14 00:41:22;;;;;;;22.50;16.83;;;;;;;23.27;49.27;99936.00;5075249;28;20028;-77
2022/08/14 00:43:48;;;;;;;21.65;17.10;;;;;;;23.28;49.34;99936.84;5089323;28;20024;-78
2022/08/14 00:46:13;;;;;;;21.98;15.82;;;;;;;23.30;49.22;99934.78;5089544;28;20137;-77
2022/08/14 00:48:39;;;;;;;26.05;16.15;;;;;;;23.28;49.02;99932.28;5081572;28;20013;-78
2022/08/14 00:51:09;;;;;;;21.23;15.90;;;;;;;23.27;49.11;99927.91;5073372;28;20032;-78
2022/08/14 00:53:37;;;;;;;20.98;15.63;;;;;;;23.27;49.49;99929.78;5072180;28;20193;-78
2022/08/14 00:56:03;;;;;;;21.13;16.45;;;;;;;23.24;49.10;99924.75;5087274;28;20040;-77
2022/08/14 00:58:31;;;;;;;20.13;15.85;;;;;;;23.22;49.50;99926.81;5072863;28;20130;-77
2022/08/14 01:01:03;;;;;;;21.13;15.93;;;;;;;23.22;49.44;99937.59;5073239;28;20021;-77
2022/08/14 01:03:30;;;;;;;21.75;15.88;;;;;;;23.17;49.34;99928.19;5087808;28;20025;-77
2022/08/14 01:05:57;;;;;;;21.80;16.63;;;;;;;23.17;49.40;99935.47;5072681;28;20021;-77
2022/08/14 01:08:28;;;;;;;19.98;15.40;;;;;;;23.15;49.33;99924.88;5086052;28;20099;-76
2022/08/14 01:10:55;;;;;;;21.42;15.00;;;;;;;23.13;49.44;99935.03;5069355;28;20031;-77
2022/08/14 01:13:27;;;;;;;19.63;15.43;;;;;;;23.13;49.35;99937.72;5068940;28;20051;-77
2022/08/14 01:15:56;;;;;;;21.60;15.00;;;;;;;23.12;49.39;99927.97;5069058;28;20009;-77
2022/08/14 01:21:11;;;;;;;19.48;15.50;;;;;;;23.11;49.30;99933.53;5072851;28;20204;-77
2022/08/14 01:23:44;;;;;;;22.90;15.88;;;;;;;23.08;49.35;99931.25;5052351;28;20017;-77
2022/08/14 01:26:11;;;;;;;26.25;16.70;;;;;;;23.08;49.55;99934.75;5068850;28;20233;-77
2022/08/14 01:28:37;;;;;;;20.92;15.45;;;;;;;23.07;49.35;99927.69;5068718;28;20047;-78
2022/08/14 01:31:12;;;;;;;23.33;16.52;;;;;;;23.07;49.42;99933.09;5068670;28;20074;-79
2022/08/14 01:33:43;;;;;;;24.70;16.23;;;;;;;23.03;49.46;99923.69;5072421;28;20229;-77
2022/08/14 01:36:10;;;;;;;20.08;15.23;;;;;;;23.00;49.58;99932.22;5082157;28;20029;-79
2022/08/14 01:38:37;;;;;;;19.92;15.80;;;;;;;23.01;49.43;99934.69;5068504;28;20028;-77
2022/08/14 01:41:08;;;;;;;20.52;14.57;;;;;;;23.03;49.56;99931.78;5072858;28;20099;-77
2022/08/14 01:43:47;;;;;;;31.02;15.50;;;;;;;23.02;49.43;99938.22;5068454;28;20180;-77
2022/08/14 01:46:14;;;;;;;18.10;14.40;;;;;;;22.99;49.65;99931.34;5068468;28;20025;-76
2022/08/14 01:48:43;;;;;;;25.45;15.57;;;;;;;22.98;49.58;99934.25;5068355;28;20024;-76
2022/08/14 01:51:11;;;;;;;24.08;14.50;;;;;;;22.96;49.91;99937.13;5076119;28;20083;-77
2022/08/14 01:53:40;;;;;;;20.88;15.77;;;;;;;22.96;49.61;99931.72;5070866;28;20039;-77
2022/08/14 01:56:06;;;;;;;19.10;14.48;;;;;;;22.93;49.70;99945.63;5068877;28;20039;-76
2022/08/14 01:58:32;;;;;;;19.55;14.75;;;;;;;22.93;49.75;99947.47;5050688;28;20145;-77
2022/08/14 02:00:58;;;;;;;19.73;14.18;;;;;;;22.92;49.74;99943.97;5072059;28;20020;-77
2022/08/14 02:03:25;;;;;;;20.23;15.05;;;;;;;22.92;49.78;99952.06;5068073;28;20056;-77
2022/08/14 02:05:51;;;;;;;21.13;15.05;;;;;;;22.90;49.85;99950.56;5068124;28;20029;-77
2022/08/14 02:08:17;;;;;;;20.40;14.82;;;;;;;22.86;49.95;99950.13;5097891;28;20048;-77
2022/08/14 02:10:42;;;;;;;19.88;14.50;;;;;;;22.83;50.12;99947.78;5069594;28;20115;-77
2022/08/14 02:13:10;;;;;;;24.63;14.25;;;;;;;22.83;49.96;99947.78;5067864;28;20017;-78
2022/08/14 02:15:39;;;;;;;20.10;14.93;;;;;;;22.80;50.10;99943.63;5071485;28;20074;-78
2022/08/14 02:18:06;;;;;;;18.70;13.63;;;;;;;22.77;50.22;99949.41;5067814;28;20043;-76
2022/08/14 02:20:32;;;;;;;18.75;14.32;;;;;;;22.76;50.26;99958.50;5067869;28;20237;-78
2022/08/14 02:23:02;;;;;;;24.45;15.32;;;;;;;22.78;50.08;99953.75;5067865;28;20025;-77
2022/08/14 02:25:29;;;;;;;21.17;14.30;;;;;;;22.79;50.24;99951.91;5067778;28;20031;-78
2022/08/14 02:27:55;;;;;;;19.77;14.32;;;;;;;22.78;50.31;99956.47;5067737;28;20041;-77
2022/08/14 02:30:23;;;;;;;23.23;14.93;;;;;;;22.78;50.12;99947.56;5067547;28;20032;-77
2022/08/14 02:32:53;;;;;;;22.75;15.73;;;;;;;22.80;50.20;99946.31;5067683;28;20029;-77
2022/08/14 02:35:19;;;;;;;24.55;14.90;;;;;;;22.79;50.28;99958.13;5067582;28;20130;-77
2022/08/14 02:37:46;;;;;;;24.67;16.20;;;;;;;22.76;50.12;99953.13;5067644;28;20040;-77
2022/08/14 02:40:11;;;;;;;20.35;15.15;;;;;;;22.74;50.37;99955.16;5067424;28;20028;-77
2022/08/14 02:42:38;;;;;;;24.85;16.92;;;;;;;22.71;50.48;99966.34;5067538;28;20021;-77
2022/08/14 02:45:05;;;;;;;26.92;15.02;;;;;;;22.71;50.48;99958.28;5067444;28;20035;-77
2022/08/14 02:47:30;;;;;;;26.15;16.33;;;;;;;22.70;50.49;99959.28;5067490;28;20084;-77
2022/08/14 02:49:56;;;;;;;20.60;15.70;;;;;;;22.68;50.51;99953.25;5067334;28;20035;-77
2022/08/14 02:52:22;;;;;;;26.15;16.15;;;;;;;22.66;50.72;99950.72;5067468;28;20016;-77
2022/08/14 02:54:47;;;;;;;21.38;16.73;;;;;;;22.66;50.63;99958.81;5067332;28;20029;-77
2022/08/14 02:57:14;;;;;;;21.67;15.30;;;;;;;22.67;50.52;99957.78;5082316;28;20028;-77
2022/08/14 02:59:40;;;;;;;23.77;16.13;;;;;;;22.72;50.54;99959.91;5069843;28;20043;-77
2022/08/14 03:02:07;;;;;;;22.23;15.60;;;;;;;22.73;50.74;99969.69;5087467;28;20091;-77
2022/08/14 03:04:32;;;;;;;20.67;14.48;;;;;;;22.76;50.76;99966.59;5087344;28;20013;-78
2022/08/14 03:06:58;;;;;;;24.08;15.63;;;;;;;22.76;50.65;99973.88;5087124;28;20052;-78
2022/08/14 03:09:24;;;;;;;20.63;15.55;;;;;;;22.74;50.69;99973.22;5087259;28;20047;-78
2022/08/14 03:11:51;;;;;;;27.20;17.13;;;;;;;22.78;50.48;99977.22;5087392;28;20032;-78
2022/08/14 03:14:16;;;;;;;23.38;15.63;;;;;;;22.79;50.48;99977.03;5087310;28;20024;-78
2022/08/14 03:16:44;;;;;;;20.80;15.18;;;;;;;22.84;50.56;99971.91;5087363;28;20232;-78
2022/08/14 03:19:09;;;;;;;22.73;14.10;;;;;;;22.90;50.22;99974.84;5087537;28;20095;-77
2022/08/14 03:21:38;;;;;;;18.10;13.93;;;;;;;22.94;50.15;99981.53;5087249;28;20259;-78
2022/08/14 03:24:10;;;;;;;18.00;14.27;;;;;;;22.96;50.12;99968.69;5087177;28;20134;-78
2022/08/14 03:26:45;;;;;;;19.48;14.40;;;;;;;23.00;50.07;99970.81;5087235;28;20042;-77
2022/08/14 03:29:14;;;;;;;20.48;14.05;;;;;;;23.02;49.87;99973.31;5084232;28;20131;-78
2022/08/14 03:31:41;;;;;;;22.48;13.65;;;;;;;23.04;50.21;99973.13;5071075;28;20025;-76
2022/08/14 03:34:09;;;;;;;21.73;12.82;;;;;;;23.08;49.83;99977.94;5070896;28;20021;-78
2022/08/14 03:36:35;;;;;;;23.70;14.75;;;;;;;23.10;49.92;99969.63;5070896;28;20081;-77
2022/08/14 03:39:02;;;;;;;21.92;15.02;;;;;;;23.15;49.76;99976.16;5073839;28;20031;-77
2022/08/14 03:41:28;;;;;;;27.55;15.38;;;;;;;23.18;49.87;99966.84;5076410;28;20020;-76
2022/08/14 03:44:00;;;;;;;27.25;13.85;;;;;;;23.26;49.53;99968.59;5079761;28;20039;-76
2022/08/14 03:46:30;;;;;;;23.17;13.40;;;;;;;23.34;49.27;99968.44;5090684;28;20024;-76
2022/08/14 03:48:56;;;;;;;22.90;14.38;;;;;;;23.38;49.31;99974.31;5089019;28;20020;-77
2022/08/14 03:51:27;;;;;;;25.67;14.68;;;;;;;23.38;49.00;99972.44;5072095;28;20033;-77
2022/08/14 03:53:56;;;;;;;21.02;13.25;;;;;;;23.41;49.15;99974.75;5074447;28;20017;-77
2022/08/14 03:56:22;;;;;;;18.10;12.93;;;;;;;23.45;49.11;99967.09;5070573;28;20032;-77
2022/08/14 03:58:50;;;;;;;20.83;13.30;;;;;;;23.52;48.68;99965.31;5072311;28;20222;-76
2022/08/14 04:01:20;;;;;;;20.40;11.98;;;;;;;23.55;48.79;99967.59;5071941;28;20087;-77
2022/08/14 04:03:47;;;;;;;18.58;11.13;;;;;;;23.56;48.75;99969.25;5070377;28;20261;-77
2022/08/14 04:06:12;;;;;;;19.70;12.65;;;;;;;23.57;49.05;99972.81;5070838;28;20029;-77
2022/08/14 04:08:39;;;;;;;22.67;12.63;;;;;;;23.57;49.39;99970.94;5090153;28;20108;-77
2022/08/14 04:11:07;;;;;;;25.10;12.88;;;;;;;23.59;49.11;99973.44;5075451;28;20036;-76
2022/08/14 04:13:35;;;;;;;16.98;11.43;;;;;;;23.61;49.08;99971.38;5073084;28;20035;-77
2022/08/14 04:16:09;;;;;;;20.63;11.50;;;;;;;23.63;48.93;99969.31;5070907;28;20242;-76
2022/08/14 04:18:42;;;;;;;14.00;10.65;;;;;;;23.69;48.46;99973.09;5077645;28;20043;-77
2022/08/14 04:21:09;;;;;;;25.15;11.23;;;;;;;23.70;48.28;99975.59;5070107;28;20035;-76
2022/08/14 04:23:35;;;;;;;15.65;11.27;;;;;;;23.75;48.24;99969.59;5069995;28;20055;-76
2022/08/14 04:26:04;;;;;;;16.23;11.25;;;;;;;23.76;48.42;99973.97;5070032;28;20032;-77
2022/08/14 04:28:30;;;;;;;19.88;10.85;;;;;;;23.80;48.07;99977.13;5074419;28;20056;-76
2022/08/14 04:30:56;;;;;;;14.82;10.65;;;;;;;23.84;48.20;99981.09;5072977;28;20035;-76
2022/08/14 04:33:23;;;;;;;17.23;9.52;;;;;;;23.90;47.76;99981.16;5069847;28;20024;-76
2022/08/14 04:35:50;;;;;;;14.15;10.75;;;;;;;24.00;47.86;99977.28;5073613;28;20036;-77
2022/08/14 04:43:44;;;;;;;16.92;11.85;;;;;;;24.15;48.04;99979.88;5085687;28;20054;-76
2022/08/14 04:46:15;;;;;;;17.80;10.10;;;;;;;24.18;47.45;99974.91;5089727;28;20100;-76
2022/08/14 04:48:41;;;;;;;16.30;9.88;;;;;;;24.33;47.35;99976.63;5087989;28;20084;-74
2022/08/14 04:51:09;;;;;;;14.48;9.85;;;;;;;24.56;47.03;99976.31;5070473;28;20017;-76
2022/08/14 04:53:37;;;;;;;17.45;10.13;;;;;;;24.78;46.52;99977.06;5073397;28;20090;-76
2022/08/14 04:56:06;;;;;;;18.02;9.73;;;;;;;25.05;45.88;99979.81;5069597;28;20142;-76
2022/08/14 04:58:33;;;;;;;14.95;10.48;;;;;;;25.25;45.56;99974.41;5073002;28;20032;-75
2022/08/14 05:01:01;;;;;;;18.67;10.15;;;;;;;25.52;45.05;99970.94;5080322;28;20017;-76
2022/08/14 05:03:29;;;;;;;14.63;9.50;;;;;;;25.81;44.60;99968.81;5073121;28;20052;-76
2022/08/14 05:05:57;;;;;;;16.20;10.65;;;;;;;26.08;43.58;99969.59;5069291;28;20029;-76
2022/08/14 05:08:23;;;;;;;13.57;9.20;;;;;;;26.26;43.61;99966.25;5087463;28;20152;-77
2022/08/14 05:10:52;;;;;;;14.57;9.27;;;;;;;26.50;43.02;99967.41;5073976;28;20028;-76
2022/08/14 05:13:19;;;;;;;15.45;8.75;;;;;;;26.68;42.49;99962.28;5069010;28;20025;-76
2022/08/14 05:15:45;;;;;;;12.82;8.82;;;;;;;26.77;42.54;99964.53;5069111;28;20028;-75
2022/08/14 05:18:13;;;;;;;10.18;7.45;;;;;;;26.89;41.99;99967.44;5069007;28;20037;-76
2022/08/14 05:20:41;;;;;;;10.82;7.85;;;;;;;27.01;42.09;99966.72;5077978;28;20020;-76
2022/08/14 05:23:06;;;;;;;12.05;8.27;;;;;;;27.08;41.49;99965.63;5083406;28;20111;-77
2022/08/14 05:25:33;;;;;;;10.35;7.97;;;;;;;27.21;41.49;99966.59;5072765;28;20028;-75
2022/08/14 05:28:06;;;;;;;11.68;7.63;;;;;;;27.27;41.35;99963.00;5068874;28;20036;-77
2022/08/14 05:30:32;;;;;;;12.35;7.88;;;;;;;27.32;41.25;99965.88;5071749;28;20017;-77
2022/08/14 05:33:00;;;;;;;14.13;7.75;;;;;;;27.38;41.06;99961.44;5068774;28;20033;-77
2022/08/14 05:35:25;;;;;;;11.45;7.82;;;;;;;27.45;41.24;99967.69;5072390;28;20103;-75
2022/08/14 05:37:52;;;;;;;12.65;7.45;;;;;;;27.52;40.73;99967.63;5079104;28;20031;-77
2022/08/14 05:40:18;;;;;;;11.73;7.68;;;;;;;27.54;40.68;99954.66;5088517;28;20206;-76
2022/08/14 05:42:43;;;;;;;12.52;8.05;;;;;;;27.53;40.75;99961.97;5088562;28;20039;-77
2022/08/14 05:45:09;;;;;;;14.98;8.40;;;;;;;27.54;40.86;99962.81;5077624;28;20088;-78
2022/08/14 05:47:39;;;;;;;20.10;8.02;;;;;;;27.57;40.56;99967.81;5068488;28;20061;-77
2022/08/14 05:50:11;;;;;;;9.55;6.47;;;;;;;27.56;40.50;99958.81;5071653;28;20029;-77
2022/08/14 05:52:37;;;;;;;9.23;6.70;;;;;;;27.58;40.52;99964.00;5072252;28;20091;-77
2022/08/14 05:55:04;;;;;;;14.00;7.70;;;;;;;27.57;40.59;99956.94;5068198;28;20075;-78
2022/08/14 05:57:29;;;;;;;11.35;6.40;;;;;;;27.49;40.75;99958.06;5083876;28;20166;-77
2022/08/14 05:59:55;;;;;;;15.25;6.95;;;;;;;27.47;40.77;99952.00;5088198;28;20024;-76
2022/08/14 06:02:20;;;;;;;15.35;6.82;;;;;;;27.45;40.60;99953.22;5081976;28;20028;-77
2022/08/14 06:04:47;;;;;;;12.85;6.28;;;;;;;27.31;41.02;99955.25;5068073;28;20047;-77
2022/08/14 06:07:15;;;;;;;9.10;5.85;;;;;;;27.10;41.53;99949.97;5076772;28;20066;-76
2022/08/14 06:09:41;;;;;;;12.60;5.95;;;;;;;26.86;41.80;99948.88;5087960;28;20028;-75
2022/08/14 06:12:08;;;;;;;10.20;5.25;;;;;;;26.68;42.24;99951.44;5088076;28;20229;-76
2022/08/14 06:14:34;;;;;;;10.50;5.88;;;;;;;26.57;42.36;99947.53;5087899;28;20141;-76
2022/08/14 06:16:59;;;;;;;11.80;5.88;;;;;;;26.47;43.03;99948.84;5087999;28;20020;-76
2022/08/14 06:19:25;;;;;;;10.13;5.72;;;;;;;26.40;42.75;99948.00;5087772;28;20017;-75
2022/08/14 06:21:51;;;;;;;7.45;5.13;;;;;;;26.34;42.96;99947.00;5087932;28;20024;-75
2022/08/14 06:24:17;;;;;;;13.38;6.00;;;;;;;26.31;43.19;99949.31;5087823;28;20031;-76
2022/08/14 06:26:44;;;;;;;10.98;6.10;;;;;;;26.28;43.00;99952.44;5087899;28;20017;-75
2022/08/14 06:29:10;;;;;;;12.68;6.10;;;;;;;26.25;42.88;99948.28;5087730;28;20050;-76
2022/08/14 06:31:35;;;;;;;15.90;5.85;;;;;;;26.22;42.97;99948.72;5085558;28;20059;-77
2022/08/14 06:34:01;;;;;;;11.98;5.78;;;;;;;26.21;43.08;99947.06;5075070;28;20134;-76
2022/08/14 06:36:27;;;;;;;9.15;4.82;;;;;;;26.18;42.84;99945.59;5067637;28;20013;-77
2022/08/14 06:38:52;;;;;;;11.05;5.43;;;;;;;26.17;43.21;99948.53;5067564;28;20051;-77
2022/08/14 06:41:18;;;;;;;10.23;4.63;;;;;;;26.16;42.55;99955.84;5067490;28;20051;-76
2022/08/14 06:43:43;;;;;;;7.78;4.20;;;;;;;26.15;42.67;99951.44;5071760;28;20040;-75
2022/08/14 06:46:09;;;;;;;6.68;4.47;;;;;;;26.15;42.37;99951.44;5078946;28;20105;-75
2022/08/14 06:48:34;;;;;;;7.70;4.50;;;;;;;26.14;42.23;99955.22;5071024;28;20020;-76
2022/08/14 06:51:00;;;;;;;9.93;4.47;;;;;;;26.15;42.40;99948.75;5067381;28;20021;-75
2022/08/14 06:53:25;;;;;;;11.43;5.00;;;;;;;26.14;42.32;99952.50;5071124;28;20020;-75
2022/08/14 06:55:51;;;;;;;8.10;4.97;;;;;;;26.13;42.30;99948.13;5071296;28;20032;-75
2022/08/14 06:58:17;;;;;;;7.45;3.85;;;;;;;26.13;42.36;99953.53;5074790;28;20025;-77
2022/08/14 07:05:44;;;;;;;7.07;4.45;;;;;;;26.12;42.38;99948.34;5067349;28;20025;-76
2022/08/14 07:06:14;;;;;;;6.45;4.07;;;;;;;26.09;42.77;99954.16;5072075;28;20027;-76
2022/08/14 07:08:42;;;;;;;10.82;4.32;;;;;;;26.10;42.64;99945.78;5091360;28;20149;-76
2022/08/14 07:11:08;;;;;;;5.70;4.10;;;;;;;26.09;42.56;99946.88;5091442;28;20031;-76
2022/08/14 07:13:34;;;;;;;8.77;4.70;;;;;;;26.08;42.51;99953.34;5077368;28;20086;-76
2022/08/14 07:16:00;;;;;;;7.03;4.55;;;;;;;26.08;42.55;99941.66;5071384;28;20021;-76
2022/08/14 07:18:27;;;;;;;9.95;4.32;;;;;;;26.08;42.70;99936.22;5072361;28;20017;-76
2022/08/14 07:20:54;;;;;;;7.18;4.25;;;;;;;26.10;42.62;99943.09;5073631;28;20226;-76
2022/08/14 07:23:22;;;;;;;6.70;4.13;;;;;;;26.10;42.64;99934.13;5071145;28;20025;-76
2022/08/14 07:25:50;;;;;;;9.00;4.97;;;;;;;26.10;42.52;99937.66;5084582;28;20027;-76
2022/08/14 07:28:25;;;;;;;10.88;4.25;;;;;;;26.12;42.88;99938.31;5090570;28;20024;-76
2022/08/14 07:30:56;;;;;;;8.25;4.82;;;;;;;26.12;42.56;99942.91;5087470;28;20025;-75
2022/08/14 07:33:22;;;;;;;;;;;;;;;26.03;43.00;99939.56;5091415;28;20020;-76
2022/08/14 07:35:48;;;;;;;6.00;3.85;;;;;;;26.05;42.37;99949.16;5079674;28;19903;-74
2022/08/14 07:38:19;;;;;;;5.65;4.10;;;;;;;26.08;42.53;99949.78;5070847;28;20028;-75
2022/08/14 07:40:45;;;;;;;6.65;4.43;;;;;;;26.08;42.28;99947.91;5086984;28;20083;-76
2022/08/14 07:43:12;;;;;;;6.70;4.40;;;;;;;26.10;42.41;99944.97;5073280;28;20298;-76
2022/08/14 07:45:39;;;;;;;6.65;4.00;;;;;;;26.10;42.50;99934.13;5083998;28;20044;-75
2022/08/14 07:48:05;;;;;;;4.60;3.40;;;;;;;26.10;42.34;99940.38;5074492;28;20043;-75
2022/08/14 07:50:32;;;;;;;8.30;3.40;;;;;;;26.11;41.95;99942.06;5070504;28;20103;-77
2022/08/14 07:52:58;;;;;;;7.35;3.25;;;;;;;26.13;41.63;99941.88;5070630;28;20035;-76
2022/08/14 07:55:24;;;;;;;9.02;3.28;;;;;;;26.14;41.15;99944.38;5079828;28;20031;-76
2022/08/14 07:57:50;;;;;;;5.80;3.60;;;;;;;26.16;41.32;99944.97;5090617;28;20024;-76
2022/08/14 08:00:21;;;;;;;4.03;2.65;;;;;;;26.17;41.24;99945.84;5090484;28;20028;-76
2022/08/14 08:02:50;;;;;;;3.63;2.70;;;;;;;26.16;41.07;99936.84;5085545;28;20025;-77
2022/08/14 08:05:16;;;;;;;8.35;3.22;;;;;;;26.18;40.39;99942.91;5070373;28;20029;-76
2022/08/14 08:07:43;;;;;;;4.68;3.03;;;;;;;26.19;39.99;99946.44;5095938;28;20082;-76
2022/08/14 08:13:28;;;;;;;6.10;3.40;;;;;;;26.15;39.49;99945.22;5069840;28;20189;-75
2022/08/14 08:15:56;;;;;;;7.15;3.33;;;;;;;26.12;39.64;99946.44;5048054;28;20072;-77
2022/08/14 08:18:22;;;;;;;4.65;2.97;;;;;;;26.11;39.56;99947.50;5074150;28;20035;-74
2022/08/14 08:20:50;;;;;;;6.22;2.63;;;;;;;26.11;39.83;99942.06;5073992;28;20017;-76
2022/08/14 08:23:18;;;;;;;3.30;2.40;;;;;;;26.12;39.85;99948.34;5073939;28;20059;-76
2022/08/14 08:25:47;;;;;;;10.07;2.58;;;;;;;26.13;39.78;99939.97;5072297;28;20046;-76
2022/08/14 08:28:15;;;;;;;5.95;2.30;;;;;;;26.16;39.18;99941.47;5076883;28;20043;-76
2022/08/14 08:30:53;;;;;;;3.90;2.33;;;;;;;26.17;39.03;99951.25;5074701;28;20048;-76
2022/08/14 08:33:20;;;;;;;5.63;2.42;;;;;;;26.18;39.20;99942.91;5073304;28;20020;-76
2022/08/14 08:35:47;;;;;;;5.93;2.50;;;;;;;26.22;38.75;99947.91;5072170;28;20017;-76
2022/08/14 08:38:24;;;;;;;5.80;2.60;;;;;;;26.20;38.53;99935.38;5089851;28;20039;-77
2022/08/14 08:40:54;;;;;;;2.63;2.17;;;;;;;26.22;38.68;99942.47;5089865;28;20027;-77
2022/08/14 08:43:32;;;;;;;3.95;2.70;;;;;;;26.22;38.80;99937.88;5089771;28;20035;-77
2022/08/14 08:45:59;;;;;;;10.15;2.60;;;;;;;26.22;38.45;99931.63;5070172;28;20024;-76
2022/08/14 08:48:28;;;;;;;4.68;2.17;;;;;;;26.22;38.58;99942.47;5069562;28;20049;-76
2022/08/14 08:50:58;;;;;;;4.30;2.53;;;;;;;26.22;38.95;99937.06;5069484;28;20021;-75
2022/08/14 08:53:31;;;;;;;5.10;3.10;;;;;;;26.20;38.97;99932.66;5069486;28;20036;-76
2022/08/14 08:55:57;;;;;;;6.43;2.60;;;;;;;26.21;38.95;99933.50;5074168;28;20154;-75
2022/08/14 08:58:22;;;;;;;6.80;2.67;;;;;;;26.24;39.25;99924.13;5088487;28;20036;-74
2022/08/14 09:00:50;;;;;;;3.70;2.20;;;;;;;26.24;39.08;99922.22;5073707;28;20067;-75
2022/08/14 09:03:20;;;;;;;4.07;2.78;;;;;;;26.25;38.76;99926.59;5071909;28;20033;-75
2022/08/14 09:05:51;;;;;;;3.03;2.45;;;;;;;26.29;39.03;99921.56;5068977;28;20032;-75
2022/08/14 09:08:24;;;;;;;5.22;2.63;;;;;;;26.30;38.91;99925.94;5086273;28;20044;-76
2022/08/14 09:10:52;;;;;;;5.78;3.10;;;;;;;26.31;38.91;99919.47;5088934;28;20020;-76
2022/08/14 09:13:18;;;;;;;7.05;3.58;;;;;;;26.31;39.17;99912.19;5082542;28;20022;-75
2022/08/14 09:15:46;;;;;;;3.65;2.70;;;;;;;26.33;39.25;99920.91;5069702;28;20082;-75
2022/08/14 09:18:14;;;;;;;9.82;3.60;;;;;;;26.32;39.22;99911.13;5072574;28;20024;-76
2022/08/14 09:20:42;;;;;;;5.07;3.40;;;;;;;26.33;39.19;99912.78;5068941;28;20031;-76
2022/08/14 09:23:09;;;;;;;4.70;3.03;;;;;;;26.34;39.30;99917.16;5068907;28;20029;-75
2022/08/14 09:25:36;;;;;;;6.97;3.22;;;;;;;26.37;39.50;99912.34;5068087;28;20052;-75
2022/08/14 09:28:03;;;;;;;4.45;3.35;;;;;;;26.38;39.20;99912.16;5068867;28;20035;-75
2022/08/14 09:30:32;;;;;;;7.00;3.47;;;;;;;26.41;39.09;99914.41;5068826;28;20017;-74
2022/08/14 09:33:01;;;;;;;4.32;3.05;;;;;;;26.42;39.25;99915.25;5068757;28;20028;-74
2022/08/14 09:35:53;;;;;;;4.90;3.42;;;;;;;26.43;39.06;99916.94;5069267;28;20021;-75
2022/08/14 09:38:31;;;;;;;4.68;3.10;;;;;;;26.43;38.72;99920.47;5072405;28;20032;-74
2022/08/14 09:41:15;;;;;;;4.45;3.15;;;;;;;26.44;38.53;99908.56;5068562;28;20104;-74
2022/08/14 09:44:06;;;;;;;6.82;3.65;;;;;;;26.44;38.41;99913.97;5068392;28;20028;-74
2022/08/14 09:46:33;;;;;;;4.78;3.20;;;;;;;26.44;38.67;99907.75;5079669;28;20125;-73
2022/08/14 09:49:01;;;;;;;4.13;3.30;;;;;;;26.45;38.53;99909.41;5069678;28;20024;-74
2022/08/14 09:51:28;;;;;;;5.20;3.53;;;;;;;26.46;38.38;99908.38;5071831;28;20025;-74
2022/08/14 09:54:11;;;;;;;9.93;4.45;;;;;;;26.46;38.36;99906.47;5068583;28;20020;-74
2022/08/14 09:56:48;;;;;;;12.80;4.40;;;;;;;26.47;38.70;99913.56;5082031;28;20032;-74
2022/08/14 09:59:21;;;;;;;7.13;3.55;;;;;;;26.49;38.62;99906.03;5086416;28;20085;-74
2022/08/14 10:01:47;;;;;;;8.32;3.95;;;;;;;26.50;38.45;99901.44;5068076;28;20044;-75
2022/08/14 10:04:24;;;;;;;9.13;4.40;;;;;;;26.49;38.48;99895.19;5067962;28;20021;-74
2022/08/14 10:06:50;;;;;;;9.30;3.45;;;;;;;26.48;38.40;99904.38;5071844;28;20077;-75
2022/08/14 10:09:17;;;;;;;4.70;3.60;;;;;;;26.49;38.33;99905.19;5074442;28;20135;-74
2022/08/14 10:11:54;;;;;;;7.47;3.58;;;;;;;26.48;38.05;99909.78;5071860;28;20032;-74
2022/08/14 10:14:23;;;;;;;4.78;3.90;;;;;;;26.47;38.03;99902.72;5071800;28;20137;-74
2022/08/14 10:16:55;;;;;;;4.43;3.45;;;;;;;26.47;38.22;99905.41;5071840;28;20044;-74
2022/08/14 10:19:29;;;;;;;4.07;3.47;;;;;;;26.48;38.34;99900.81;5050409;28;20070;-74
2022/08/14 10:22:06;;;;;;;5.78;3.75;;;;;;;26.47;38.78;99908.13;5067801;28;20021;-74
2022/08/14 10:24:38;;;;;;;5.55;3.35;;;;;;;26.46;38.78;99908.38;5067648;28;20027;-75
2022/08/14 10:27:15;;;;;;;6.43;3.78;;;;;;;26.48;38.96;99908.94;5066850;28;20032;-74
2022/08/14 10:29:43;;;;;;;6.15;4.03;;;;;;;26.47;38.92;99904.59;5067637;28;20040;-75
2022/08/14 10:32:10;;;;;;;5.32;3.80;;;;;;;26.46;39.20;99914.59;5067734;28;20222;-74
2022/08/14 10:34:40;;;;;;;4.63;3.92;;;;;;;26.46;39.22;99895.63;5072585;28;20027;-74
2022/08/14 10:37:12;;;;;;;4.93;3.75;;;;;;;26.47;39.47;99904.59;5087528;28;20028;-74
2022/08/14 10:39:40;;;;;;;6.97;4.00;;;;;;;26.48;38.93;99904.38;5085260;28;20152;-75
2022/08/14 10:42:10;;;;;;;5.15;3.67;;;;;;;26.51;38.70;99908.53;5067559;28;20025;-75
2022/08/14 10:44:41;;;;;;;6.70;3.97;;;;;;;26.52;38.86;99903.94;5067547;28;20044;-74
2022/08/14 10:47:09;;;;;;;11.63;4.40;;;;;;;26.50;38.34;99899.56;5067563;28;20029;-75
2022/08/14 10:49:48;;;;;;;4.95;3.70;;;;;;;26.51;38.64;99897.66;5067316;28;20028;-74
2022/08/14 10:52:20;;;;;;;10.80;4.03;;;;;;;26.52;38.27;99899.34;5067461;28;20028;-75
2022/08/14 10:54:47;;;;;;;8.88;3.97;;;;;;;26.52;38.44;99895.81;5067364;28;20039;-74
2022/08/14 10:57:19;;;;;;;5.63;4.03;;;;;;;26.54;38.48;99893.72;5067362;28;20032;-75
2022/08/14 10:59:58;;;;;;;7.05;3.78;;;;;;;26.53;38.58;99903.72;5086175;28;20028;-75
2022/08/14 11:02:28;;;;;;;7.03;3.97;;;;;;;26.49;38.56;99895.19;5087511;28;20226;-75
2022/08/14 11:05:16;;;;;;;3.65;2.88;;;;;;;26.49;38.87;99892.47;5087337;28;20083;-75
2022/08/14 11:07:55;;;;;;;4.57;3.63;;;;;;;26.48;39.01;99888.09;5087119;28;20040;-74
2022/08/14 11:10:25;;;;;;;7.88;4.00;;;;;;;26.47;38.72;99885.59;5087182;28;20230;-75
2022/08/14 11:12:55;;;;;;;8.32;4.47;;;;;;;26.49;38.07;99892.47;5087386;28;20127;-74
2022/08/14 11:15:27;;;;;;;4.80;3.92;;;;;;;26.53;38.14;99890.16;5087235;28;20172;-74
2022/08/14 11:17:54;;;;;;;6.93;4.30;;;;;;;26.56;38.19;99894.28;5087307;28;20078;-75
2022/08/14 11:20:22;;;;;;;7.28;4.43;;;;;;;26.56;38.17;99894.28;5077676;28;20005;-74
2022/08/14 11:22:53;;;;;;;7.82;4.38;;;;;;;26.58;38.28;99886.78;5067188;28;20024;-74
2022/08/14 11:25:19;;;;;;;;;;;;;;;26.49;38.52;99897.91;5067472;28;20023;-74
2022/08/14 11:27:45;;;;;;;10.63;4.47;;;;;;;26.53;38.62;99892.03;5067197;28;20030;-74
2022/08/14 11:30:17;;;;;;;5.90;4.30;;;;;;;26.55;38.91;99892.63;5074562;28;20187;-74
2022/08/14 11:32:44;;;;;;;6.32;4.13;;;;;;;26.56;38.71;99889.72;5077969;28;20013;-76
2022/08/14 11:35:16;;;;;;;5.13;4.15;;;;;;;26.55;39.11;99893.47;5070804;28;20218;-75
2022/08/14 11:37:57;;;;;;;6.57;5.05;;;;;;;26.57;39.03;99887.81;5070843;28;20074;-75
2022/08/14 11:40:26;;;;;;;7.03;4.47;;;;;;;26.59;39.01;99886.56;5066894;28;20036;-75
2022/08/14 11:42:54;;;;;;;7.10;4.75;;;;;;;26.63;38.85;99886.97;5076762;28;20074;-74
2022/08/14 11:45:24;;;;;;;10.38;6.70;;;;;;;26.63;38.57;99885.06;5070642;28;20024;-74
2022/08/14 11:47:51;;;;;;;12.30;5.20;;;;;;;26.65;38.65;99885.69;5071121;28;20138;-74